Flight Track Log - Related Links

Times and Time Zones

All times are in EDT time to prevent confusion due to time zone crossing. See the N5FG flight status page for this flight to view local times or setup timezone preferences in your user account.

Time Position Orientation Groundspeed Altitude Reporting Facility
EDT Latitude Longitude Course Direction KTS MPH feet Rate Location/Type
Tue 11:29:03 AM 46.4406 -90.8144 145° Southeast 119 137 4,300  Level Minneapolis Center
Tue 11:30:05 AM 46.4128 -90.7878 146° Southeast 120 138 5,000 829 Climbing Minneapolis Center
Tue 11:31:06 AM 46.3781 -90.7556 147° Southeast 121 139 6,000 732 Climbing Minneapolis Center
Tue 11:32:08 AM 46.3494 -90.7258 144° Southeast 124 143 6,500 439 Climbing Minneapolis Center
Tue 11:33:09 AM 46.3164 -90.6950 147° Southeast 130 150 6,900 195 Climbing Minneapolis Center
Tue 11:34:00 AM 46.3112 -90.7295 145° Southeast  Level Estimated
Tue 11:34:11 AM 46.2769 -90.6622 150° Southeast 146 168 6,900  Level Minneapolis Center
Tue 11:35:12 AM 46.2417 -90.6267 145° Southeast 152 175 6,900  Level Minneapolis Center
Tue 11:36:13 AM 46.2017 -90.5914 149° Southeast 159 183 6,900 98 Level Minneapolis Center
Tue 11:37:15 AM 46.1628 -90.5550 147° Southeast 163 188 7,100 97 Climbing Minneapolis Center
Tue 11:38:17 AM 46.1253 -90.5200 147° Southeast 163 188 7,100  Level Minneapolis Center
Tue 11:39:18 AM 46.0894 -90.4836 145° Southeast 161 185 7,100  Level Minneapolis Center
Tue 11:40:20 AM 46.0419 -90.4414 148° Southeast 163 188 7,100  Level Minneapolis Center
Tue 11:41:21 AM 46.0069 -90.4064 145° Southeast 160 184 7,100  Level Minneapolis Center
Tue 11:42:23 AM 45.9678 -90.3714 148° Southeast 162 186 7,100  Level Minneapolis Center
Tue 11:43:25 AM 45.9333 -90.3383 146° Southeast 158 182 7,100  Level Minneapolis Center
Tue 11:44:26 AM 45.8953 -90.3039 148° Southeast 158 182 7,100  Level Minneapolis Center
Tue 11:45:28 AM 45.8581 -90.2689 147° Southeast 159 183 7,100  Level Minneapolis Center
Tue 11:46:30 AM 45.8197 -90.2336 147° Southeast 161 185 7,100  Level Minneapolis Center
Tue 11:47:31 AM 45.7744 -90.1917 147° Southeast 162 186 7,100  Level Minneapolis Center
Tue 11:48:33 AM 45.7372 -90.1569 147° Southeast 162 186 7,100  Level Minneapolis Center
Tue 11:49:35 AM 45.7000 -90.1222 147° Southeast 161 185 7,100  Level Minneapolis Center
Tue 11:50:36 AM 45.6625 -90.0878 147° Southeast 160 184 7,100  Level Minneapolis Center
Tue 11:51:38 AM 45.6253 -90.0542 148° Southeast 160 184 7,100  Level Minneapolis Center
Tue 11:52:40 AM 45.5878 -90.0217 149° Southeast 159 183 7,100  Level Minneapolis Center
Tue 11:53:42 AM 45.5503 -89.9881 148° Southeast 159 183 7,100  Level Minneapolis Center
Tue 11:54:43 AM 45.5064 -89.9453 146° Southeast 159 183 7,100  Level Minneapolis Center
Tue 11:55:45 AM 45.4692 -89.9106 147° Southeast 159 183 7,100  Level Minneapolis Center
Tue 11:56:47 AM 45.4319 -89.8769 148° Southeast 159 183 7,100  Level Minneapolis Center
Tue 11:57:49 AM 45.3944 -89.8439 148° Southeast 159 183 7,100 49 Level Minneapolis Center
Tue 11:58:50 AM 45.3569 -89.8100 148° Southeast 159 183 7,200 49 Climbing Minneapolis Center
Tue 11:59:52 AM 45.3175 -89.7758 149° Southeast 162 186 7,200  Level Minneapolis Center
Tue 12:00:53 PM 45.2792 -89.7417 148° Southeast 163 188 7,200  Level Minneapolis Center
Tue 12:01:55 PM 45.2317 -89.6983 147° Southeast 166 191 7,200  Level Minneapolis Center
Tue 12:02:57 PM 45.1908 -89.6600 147° Southeast 171 197 7,200 -44 Level Minneapolis Center
Tue 12:04:10 PM 45.1494 -89.6239 148° Southeast 175 201 7,100 -44 Descending Minneapolis Center
Tue 12:05:12 PM 45.1019 -89.5797 147° Southeast 172 198 7,100 48 Level Minneapolis Center
Tue 12:06:14 PM 45.0564 -89.5439 151° Southeast 175 201 7,200 48 Climbing Minneapolis Center
Tue 12:07:16 PM 45.0133 -89.5044 147° Southeast 176 203 7,200 -49 Level Minneapolis Center
Tue 12:08:17 PM 44.9703 -89.4644 147° Southeast 178 205 7,100  Descending Minneapolis Center
Tue 12:09:19 PM 44.9314 -89.4300 148° Southeast 173 199 7,200 -48 Climbing Minneapolis Center
Tue 12:10:21 PM 44.8878 -89.3903 147° Southeast 172 198 7,000 -98 Descending Minneapolis Center
Tue 12:11:22 PM 44.8442 -89.3492 146° Southeast 178 205 7,000  Level Minneapolis Center
Tue 12:12:24 PM 44.8022 -89.3153 150° Southeast 174 200 7,000  Level Minneapolis Center
Tue 12:13:25 PM 44.7697 -89.2875 149° Southeast 169 194 7,000  Level Minneapolis Center
Tue 12:14:27 PM 44.7197 -89.2433 148° Southeast 176 203 7,000 48 Level Minneapolis Center
Tue 12:15:29 PM 44.6769 -89.2044 147° Southeast 177 204 7,100  Climbing Minneapolis Center
Tue 12:16:31 PM 44.6342 -89.1661 147° Southeast 173 199 7,000 -49 Descending Minneapolis Center
Tue 12:17:32 PM 44.5917 -89.1289 148° Southeast 172 198 7,000  Level Minneapolis Center
Tue 12:18:34 PM 44.5528 -89.0936 147° Southeast 172 198 7,000  Level Minneapolis Center
Tue 12:19:35 PM 44.5106 -89.0578 149° Southeast 170 196 7,000 98 Level Minneapolis Center
Tue 12:20:37 PM 44.4692 -89.0175 145° Southeast 176 203 7,200 97 Climbing Minneapolis Center
Tue 12:21:39 PM 44.4283 -88.9808 147° Southeast 177 204 7,200  Level Minneapolis Center
Tue 12:22:40 PM 44.3875 -88.9456 148° Southeast 174 200 7,200  Level Minneapolis Center
Tue 12:23:42 PM 44.3478 -88.9086 146° Southeast 172 198 7,200 -48 Level Minneapolis Center
Tue 12:24:44 PM 44.3081 -88.8739 148° Southeast 170 196 7,100 -49 Descending Minneapolis Center
Tue 12:25:45 PM 44.2614 -88.8333 148° Southeast 169 194 7,100  Level Minneapolis Center
Tue 12:26:47 PM 44.2222 -88.7994 148° Southeast 167 192 7,100  Level Minneapolis Center
Tue 12:27:49 PM 44.1833 -88.7661 148° Southeast 166 191 7,100  Level Minneapolis Center
Tue 12:28:50 PM 44.1453 -88.7339 149° Southeast 162 186 7,100  Level Minneapolis Center
Tue 12:29:52 PM 44.1075 -88.7000 147° Southeast 162 186 7,100  Level Minneapolis Center
Tue 12:30:54 PM 44.0686 -88.6669 149° Southeast 162 186 7,100  Level Minneapolis Center
Tue 12:31:55 PM 44.0314 -88.6347 148° Southeast 160 184 7,100  Level Minneapolis Center
Tue 12:32:57 PM 43.9883 -88.5983 149° Southeast 157 181 7,100  Level Minneapolis Center
Tue 12:33:59 PM 43.9519 -88.5681 149° Southeast 154 177 7,100  Level Minneapolis Center
Tue 12:35:01 PM 43.9150 -88.5367 149° Southeast 155 178 7,100  Level Minneapolis Center
Tue 12:36:02 PM 43.8786 -88.5053 148° Southeast 154 177 7,100  Level Minneapolis Center
Tue 12:37:04 PM 43.8414 -88.4742 149° Southeast 155 178 7,100  Level Minneapolis Center
Tue 12:38:06 PM 43.8039 -88.4417 148° Southeast 156 180 7,100  Level Minneapolis Center
Tue 12:39:08 PM 43.7667 -88.4111 149° Southeast 156 180 7,100  Level Minneapolis Center
Tue 12:40:09 PM 43.7225 -88.3739 149° Southeast 157 181 7,100  Level Minneapolis Center
Tue 12:41:11 PM 43.6839 -88.3419 149° Southeast 159 183 7,100  Level Minneapolis Center
Tue 12:42:13 PM 43.6442 -88.3086 149° Southeast 163 188 7,100  Level Minneapolis Center
Tue 12:43:17 PM 43.6031 -88.2758 150° Southeast 167 192 7,100  Level Chicago Center
Tue 12:44:19 PM 43.5622 -88.2406 148° Southeast 171 197 7,100  Level Chicago Center

Login

Don't have an account? Register now (free) for customized features, flight alerts, and more!